Time;durP1;ratioP1;P1;durP2;ratioP2;P2;SDS_P1;SDS_P2;PMS_P1;PMS_P2;Temp;Humidity;BMP_temperature;BMP_pressure;BME280_temperature;BME280_humidity;BME280_pressure;Samples;Min_cycle;Max_cycle;Signal;HPM_P1;HPM_P2
2021/07/25 00:00:55;;;;;;;28.08;22.52;;;18.70;99.90;;;;;;5115560;28;20039;-71
2021/07/25 00:03:21;;;;;;;24.67;19.42;;;18.80;99.90;;;;;;5114715;28;20035;-71
2021/07/25 00:05:47;;;;;;;25.48;21.17;;;18.80;99.90;;;;;;5115695;28;20039;-71
2021/07/25 00:08:13;;;;;;;28.23;20.60;;;18.90;99.90;;;;;;5116205;28;20052;-71
2021/07/25 00:10:43;;;;;;;30.08;22.08;;;18.90;99.90;;;;;;5114926;28;20046;-71
2021/07/25 00:13:10;;;;;;;27.48;21.83;;;18.90;99.90;;;;;;5115775;28;20036;-71
2021/07/25 00:15:36;;;;;;;24.20;21.30;;;18.80;99.90;;;;;;5115397;28;20445;-70
2021/07/25 00:18:02;;;;;;;25.50;21.35;;;18.80;99.90;;;;;;5115949;28;20467;-71
2021/07/25 00:20:27;;;;;;;26.15;21.42;;;18.80;99.90;;;;;;5115286;28;20040;-71
2021/07/25 00:22:54;;;;;;;27.70;22.63;;;18.80;99.90;;;;;;5115148;28;20035;-71
2021/07/25 00:25:19;;;;;;;26.58;21.42;;;18.90;99.90;;;;;;5115254;28;20032;-71
2021/07/25 00:27:52;;;;;;;31.50;21.77;;;19.00;99.90;;;;;;5115121;28;20387;-71
2021/07/25 00:30:18;;;;;;;32.05;24.25;;;18.90;99.90;;;;;;5114961;28;20054;-71
2021/07/25 00:32:45;;;;;;;33.05;26.63;;;18.90;99.90;;;;;;5113730;28;20036;-71
2021/07/25 00:35:11;;;;;;;39.08;27.30;;;18.80;99.90;;;;;;5114796;28;20411;-71
2021/07/25 00:37:37;;;;;;;38.30;27.25;;;18.80;99.90;;;;;;5114851;28;20039;-71
2021/07/25 00:40:03;;;;;;;41.95;29.40;;;18.90;99.90;;;;;;5114460;28;20040;-71
2021/07/25 00:42:39;;;;;;;39.67;28.02;;;18.80;99.90;;;;;;5114956;28;20039;-71
2021/07/25 00:45:06;;;;;;;39.03;28.25;;;18.70;99.90;;;;;;5115127;28;20036;-71
2021/07/25 00:47:34;;;;;;;37.10;25.88;;;18.80;99.90;;;;;;5115192;28;20356;-71
2021/07/25 00:50:04;;;;;;;35.22;26.50;;;18.80;99.90;;;;;;5114352;28;20077;-71
2021/07/25 00:52:30;;;;;;;33.67;26.55;;;18.80;99.90;;;;;;5115094;28;20077;-71
2021/07/25 00:54:57;;;;;;;38.28;25.65;;;18.80;99.90;;;;;;5114483;28;20063;-71
2021/07/25 00:57:23;;;;;;;32.10;23.95;;;18.80;99.90;;;;;;5114797;28;20387;-71
2021/07/25 00:59:48;;;;;;;31.23;23.08;;;18.80;99.90;;;;;;5114224;28;20116;-71
2021/07/25 01:02:14;;;;;;;35.03;25.15;;;18.80;99.90;;;;;;5114455;28;20031;-71
2021/07/25 01:04:51;;;;;;;25.95;20.27;;;18.80;99.90;;;;;;5114969;28;20039;-71
2021/07/25 01:07:28;;;;;;;29.75;20.60;;;18.90;99.90;;;;;;5114490;28;20112;-71
2021/07/25 01:10:00;;;;;;;26.80;21.05;;;18.90;99.90;;;;;;5114098;28;20085;-71
2021/07/25 01:12:35;;;;;;;30.98;22.65;;;18.90;99.90;;;;;;5114499;28;20043;-71
2021/07/25 01:15:02;;;;;;;30.70;24.48;;;18.90;99.90;;;;;;5114435;28;20086;-71
2021/07/25 01:17:33;;;;;;;34.92;25.13;;;18.80;99.90;;;;;;5114924;27;20403;-71
2021/07/25 01:20:05;;;;;;;27.45;22.02;;;18.80;99.90;;;;;;5113883;28;20039;-71
2021/07/25 01:22:34;;;;;;;39.40;26.35;;;18.90;99.90;;;;;;5113344;28;20050;-71
2021/07/25 01:25:03;;;;;;;31.80;22.38;;;18.90;99.90;;;;;;5114038;28;20048;-71
2021/07/25 01:27:37;;;;;;;37.53;26.35;;;19.00;99.90;;;;;;5113970;28;20475;-71
2021/07/25 01:30:07;;;;;;;31.80;23.80;;;19.00;99.90;;;;;;5113751;28;20067;-71
2021/07/25 01:32:33;;;;;;;38.47;25.63;;;19.00;99.90;;;;;;5114159;28;20376;-71
2021/07/25 01:35:01;;;;;;;46.17;28.75;;;18.90;99.90;;;;;;5113825;28;20039;-71
2021/07/25 01:37:29;;;;;;;39.35;27.80;;;19.00;99.90;;;;;;5114033;28;20104;-71
2021/07/25 01:39:55;;;;;;;37.42;26.45;;;19.10;99.90;;;;;;5113494;28;20066;-71
2021/07/25 01:42:31;;;;;;;32.50;24.92;;;19.10;99.90;;;;;;5113671;28;20067;-71
2021/07/25 01:44:58;;;;;;;32.97;24.10;;;19.20;99.90;;;;;;5113784;28;20039;-71
2021/07/25 01:47:24;;;;;;;29.13;23.15;;;19.20;99.90;;;;;;5114035;28;20502;-71
2021/07/25 01:49:50;;;;;;;36.08;24.02;;;19.20;99.90;;;;;;5113530;28;20031;-71
2021/07/25 01:52:16;;;;;;;29.85;24.05;;;19.30;99.90;;;;;;5113969;28;20044;-71
2021/07/25 01:54:43;;;;;;;31.23;24.05;;;19.30;99.90;;;;;;5114298;28;20043;-71
2021/07/25 01:57:09;;;;;;;30.08;24.63;;;19.30;99.90;;;;;;5113629;28;20047;-71
2021/07/25 01:59:35;;;;;;;32.78;24.77;;;19.20;99.90;;;;;;5113505;28;20160;-71
2021/07/25 02:02:00;;;;;;;31.83;22.90;;;19.20;99.90;;;;;;5113742;28;20043;-71
2021/07/25 02:04:26;;;;;;;29.92;20.80;;;19.30;99.90;;;;;;5114142;28;20035;-71
2021/07/25 02:06:52;;;;;;;29.58;23.35;;;19.30;99.90;;;;;;5114252;28;20036;-71
2021/07/25 02:09:17;;;;;;;29.85;23.02;;;19.30;99.90;;;;;;5113537;28;20059;-71
2021/07/25 02:11:43;;;;;;;30.80;23.73;;;19.40;99.90;;;;;;5113831;28;20071;-71
2021/07/25 02:14:09;;;;;;;29.15;23.92;;;19.40;99.90;;;;;;5113330;28;20035;-71
2021/07/25 02:16:36;;;;;;;31.27;23.17;;;19.30;99.90;;;;;;5114108;28;20036;-71
2021/07/25 02:19:02;;;;;;;31.50;22.92;;;19.30;99.90;;;;;;5113485;28;20044;-71
2021/07/25 02:21:27;;;;;;;26.83;22.05;;;19.30;99.90;;;;;;5113473;28;20059;-71
2021/07/25 02:23:53;;;;;;;35.42;24.33;;;19.30;99.90;;;;;;5113376;28;20036;-71
2021/07/25 02:26:20;;;;;;;27.65;22.67;;;19.30;99.90;;;;;;5115529;28;20131;-71
2021/07/25 02:28:45;;;;;;;31.58;25.02;;;19.30;99.90;;;;;;5117108;28;20043;-71
2021/07/25 02:31:11;;;;;;;33.88;24.42;;;19.30;99.90;;;;;;5117832;28;20061;-71
2021/07/25 02:33:37;;;;;;;28.77;23.25;;;19.30;99.90;;;;;;5116804;28;20214;-71
2021/07/25 02:36:03;;;;;;;30.92;23.58;;;19.30;99.90;;;;;;5117899;28;20058;-71
2021/07/25 02:38:28;;;;;;;32.00;24.38;;;19.30;99.90;;;;;;5115819;28;20116;-71
2021/07/25 02:40:54;;;;;;;30.13;22.08;;;19.20;99.90;;;;;;5117277;28;20031;-71
2021/07/25 02:43:19;;;;;;;31.23;23.27;;;19.20;99.90;;;;;;5117799;28;20041;-71
2021/07/25 02:45:45;;;;;;;30.70;23.38;;;19.30;99.90;;;;;;5117241;28;20063;-71
2021/07/25 02:48:11;;;;;;;15.10;11.82;;;19.30;99.90;;;;;;5117831;28;20042;-71
2021/07/25 02:50:36;;;;;;;9.13;7.05;;;19.20;99.90;;;;;;5116614;28;20075;-71
2021/07/25 02:53:02;;;;;;;5.57;4.15;;;19.10;99.90;;;;;;5117015;28;20043;-70
2021/07/25 02:55:28;;;;;;;6.32;5.10;;;19.10;99.90;;;;;;5117190;28;20418;-71
2021/07/25 02:57:53;;;;;;;5.60;4.72;;;18.90;99.90;;;;;;5116856;28;20039;-70
2021/07/25 03:00:20;;;;;;;6.00;4.63;;;18.80;99.90;;;;;;5116570;28;20058;-71
2021/07/25 03:02:45;;;;;;;7.90;5.43;;;18.80;99.90;;;;;;5116937;28;20043;-70
2021/07/25 03:05:11;;;;;;;7.88;6.53;;;18.70;99.90;;;;;;5117311;28;20037;-70
2021/07/25 03:07:37;;;;;;;8.55;6.53;;;18.60;99.90;;;;;;5117073;28;20059;-71
2021/07/25 03:10:03;;;;;;;7.65;6.70;;;18.50;99.90;;;;;;5116259;28;20097;-70
2021/07/25 03:12:29;;;;;;;9.15;7.80;;;18.50;99.90;;;;;;5116586;28;20118;-70
2021/07/25 03:14:54;;;;;;;8.48;7.53;;;18.40;99.90;;;;;;5116781;28;20510;-70
2021/07/25 03:17:20;;;;;;;8.13;7.30;;;18.30;99.90;;;;;;5116889;28;20460;-71
2021/07/25 03:19:46;;;;;;;9.95;8.10;;;18.30;99.90;;;;;;5116084;28;20032;-70
2021/07/25 03:22:12;;;;;;;11.73;8.73;;;18.20;99.90;;;;;;5116866;28;20449;-71
2021/07/25 03:24:38;;;;;;;13.50;9.90;;;18.20;99.90;;;;;;5116307;28;20644;-71
2021/07/25 03:27:04;;;;;;;10.60;8.63;;;18.10;99.90;;;;;;5116483;28;20046;-70
2021/07/25 03:29:30;;;;;;;9.52;8.07;;;18.10;99.90;;;;;;5115964;27;20066;-70
2021/07/25 03:31:56;;;;;;;9.77;8.45;;;18.00;99.90;;;;;;5116049;28;20483;-71
2021/07/25 03:34:21;;;;;;;10.07;8.10;;;18.00;99.90;;;;;;5116998;27;20039;-71
2021/07/25 03:36:47;;;;;;;11.85;8.75;;;18.00;99.90;;;;;;5115804;28;20036;-71
2021/07/25 03:39:18;;;;;;;10.18;8.65;;;18.00;99.90;;;;;;5114851;28;20067;-71
2021/07/25 03:41:43;;;;;;;10.13;7.70;;;18.00;99.90;;;;;;5116156;28;20039;-71
2021/07/25 03:44:09;;;;;;;9.20;7.72;;;18.00;99.90;;;;;;5116466;28;20031;-71
2021/07/25 03:46:36;;;;;;;9.68;8.50;;;17.90;99.90;;;;;;5115847;28;20036;-71
2021/07/25 03:49:07;;;;;;;10.93;9.68;;;17.90;99.90;;;;;;5115646;28;20502;-71
2021/07/25 03:51:32;;;;;;;10.35;9.25;;;17.90;99.90;;;;;;5116374;28;20039;-71
2021/07/25 03:54:04;;;;;;;11.40;9.30;;;17.90;99.90;;;;;;5116119;28;20498;-71
2021/07/25 03:56:30;;;;;;;10.95;9.57;;;17.90;99.90;;;;;;5116100;28;20071;-71
2021/07/25 03:58:56;;;;;;;11.48;9.65;;;17.80;99.90;;;;;;5115694;28;20067;-71
2021/07/25 04:01:21;;;;;;;13.90;10.32;;;17.80;99.90;;;;;;5115588;28;20043;-71
2021/07/25 04:03:48;;;;;;;13.50;10.75;;;17.80;99.90;;;;;;5115496;28;20495;-71
2021/07/25 04:06:13;;;;;;;12.90;10.18;;;17.80;99.90;;;;;;5115563;28;20085;-71
2021/07/25 04:08:39;;;;;;;12.75;11.00;;;17.80;99.90;;;;;;5115145;28;20092;-70
2021/07/25 04:11:05;;;;;;;12.48;10.10;;;17.70;99.90;;;;;;5115563;28;20074;-71
2021/07/25 04:13:31;;;;;;;13.43;10.85;;;17.70;99.90;;;;;;5115267;28;20048;-71
2021/07/25 04:16:00;;;;;;;16.40;11.77;;;17.70;99.90;;;;;;5115423;28;20111;-71
2021/07/25 04:18:26;;;;;;;13.80;11.75;;;17.70;99.90;;;;;;5115137;28;20410;-70
2021/07/25 04:20:51;;;;;;;15.18;10.80;;;17.80;99.90;;;;;;5114759;28;20067;-71
2021/07/25 04:23:17;;;;;;;17.65;11.73;;;17.70;99.90;;;;;;5115094;28;20506;-71
2021/07/25 04:25:43;;;;;;;11.75;10.55;;;17.80;99.90;;;;;;5115251;28;20036;-71
2021/07/25 04:28:10;;;;;;;14.52;12.35;;;17.80;99.90;;;;;;5115516;28;20040;-70
2021/07/25 04:30:36;;;;;;;13.05;11.65;;;17.80;99.90;;;;;;5115095;28;20039;-71
2021/07/25 04:33:03;;;;;;;14.48;11.95;;;17.90;99.90;;;;;;5114891;28;20429;-71
2021/07/25 04:35:30;;;;;;;15.35;12.38;;;17.90;99.90;;;;;;5115157;28;20452;-71
2021/07/25 04:37:59;;;;;;;15.65;11.55;;;17.90;99.90;;;;;;5115268;27;20043;-71
2021/07/25 04:40:25;;;;;;;13.52;11.07;;;17.90;99.90;;;;;;5114348;28;20040;-71
2021/07/25 04:42:56;;;;;;;14.60;10.88;;;18.00;99.90;;;;;;5115599;28;20118;-71
2021/07/25 04:46:04;;;;;;;15.93;11.43;;;18.00;99.90;;;;;;5114758;28;20039;-71
2021/07/25 04:48:43;;;;;;;13.18;11.40;;;18.10;99.90;;;;;;5108302;28;20506;-71
2021/07/25 04:51:10;;;;;;;12.02;10.38;;;18.20;99.90;;;;;;5114795;28;20055;-71
2021/07/25 04:53:41;;;;;;;13.35;10.75;;;18.30;99.90;;;;;;5115462;28;20402;-71
2021/07/25 04:56:12;;;;;;;14.73;10.70;;;18.30;99.90;;;;;;5115215;28;20039;-71
2021/07/25 04:58:50;;;;;;;14.05;11.40;;;18.30;99.90;;;;;;5114319;28;20507;-71
2021/07/25 05:01:36;;;;;;;14.48;11.00;;;18.30;99.90;;;;;;5114500;28;20036;-71
2021/07/25 05:04:05;;;;;;;13.52;10.32;;;18.30;99.90;;;;;;5115160;28;20042;-70
2021/07/25 05:06:32;;;;;;;12.10;9.35;;;18.40;99.90;;;;;;5114294;28;20038;-71
2021/07/25 05:08:58;;;;;;;11.45;9.85;;;18.40;99.90;;;;;;5113921;28;20550;-70
2021/07/25 05:11:38;;;;;;;13.73;10.57;;;18.50;99.90;;;;;;5114222;28;20114;-71
2021/07/25 05:14:10;;;;;;;13.57;9.10;;;18.50;99.90;;;;;;5114290;28;20047;-71
2021/07/25 05:16:48;;;;;;;12.98;10.48;;;18.50;99.90;;;;;;5114851;28;20368;-71
2021/07/25 05:19:48;;;;;;;13.27;9.80;;;18.50;99.90;;;;;;5114158;28;20048;-71
2021/07/25 05:22:40;;;;;;;12.05;9.50;;;18.60;99.90;;;;;;5106294;28;20064;-70
2021/07/25 05:25:07;;;;;;;14.70;10.55;;;18.60;99.90;;;;;;5114042;28;20484;-71
2021/07/25 05:27:45;;;;;;;14.45;10.82;;;18.50;99.90;;;;;;5114035;28;20430;-71
2021/07/25 05:30:17;;;;;;;12.63;10.50;;;18.50;99.90;;;;;;5113788;28;20460;-70
2021/07/25 05:32:42;;;;;;;16.92;12.23;;;18.50;99.90;;;;;;5114094;28;20036;-71
2021/07/25 05:35:09;;;;;;;14.98;11.02;;;18.40;99.90;;;;;;5114479;28;20051;-71
2021/07/25 05:37:37;;;;;;;13.32;11.05;;;18.40;99.90;;;;;;5114553;28;20066;-71
2021/07/25 05:40:04;;;;;;;15.13;12.40;;;18.50;99.90;;;;;;5113539;28;20440;-71
2021/07/25 05:42:29;;;;;;;18.23;13.38;;;18.50;99.90;;;;;;5113763;28;20040;-71
2021/07/25 05:44:57;;;;;;;16.83;14.27;;;18.50;99.90;;;;;;5114160;28;20035;-71
2021/07/25 05:47:23;;;;;;;19.02;14.75;;;18.50;99.90;;;;;;5113928;28;20040;-71
2021/07/25 05:49:49;;;;;;;18.98;14.57;;;18.50;99.90;;;;;;5113611;28;20381;-71
2021/07/25 05:52:19;;;;;;;21.75;16.33;;;18.50;99.90;;;;;;5113824;28;20097;-71
2021/07/25 05:54:45;;;;;;;22.70;17.17;;;18.50;99.90;;;;;;5113828;28;20044;-71
2021/07/25 05:57:11;;;;;;;23.38;16.30;;;18.50;99.90;;;;;;5113895;28;20484;-71
2021/07/25 05:59:36;;;;;;;24.63;17.65;;;18.50;99.90;;;;;;5113737;28;20043;-71
2021/07/25 06:02:03;;;;;;;24.10;17.30;;;18.50;99.90;;;;;;5116149;28;20043;-71
2021/07/25 06:04:29;;;;;;;25.77;18.27;;;18.60;99.90;;;;;;5117832;28;20035;-71
2021/07/25 06:06:56;;;;;;;26.45;19.27;;;18.60;99.90;;;;;;5118476;28;20486;-71
2021/07/25 06:09:23;;;;;;;24.48;18.67;;;18.70;99.90;;;;;;5117428;28;20042;-70
2021/07/25 06:11:49;;;;;;;26.05;19.85;;;18.70;99.90;;;;;;5117831;28;20071;-70
2021/07/25 06:14:14;;;;;;;30.92;20.38;;;18.70;99.90;;;;;;5118079;28;20042;-70
2021/07/25 06:16:40;;;;;;;27.85;21.38;;;18.70;99.90;;;;;;5117631;28;20397;-70
2021/07/25 06:19:06;;;;;;;30.08;20.85;;;18.80;99.90;;;;;;5117840;28;20035;-70
2021/07/25 06:21:31;;;;;;;32.42;21.85;;;18.70;99.90;;;;;;5118099;28;20040;-69
2021/07/25 06:23:58;;;;;;;29.33;21.02;;;18.70;99.90;;;;;;5117444;28;20067;-70
2021/07/25 06:26:24;;;;;;;28.95;21.38;;;18.70;99.90;;;;;;5117575;28;20067;-70
2021/07/25 06:28:50;;;;;;;29.40;22.13;;;18.70;99.90;;;;;;5116180;28;20466;-70
2021/07/25 06:31:16;;;;;;;28.30;21.88;;;18.80;99.90;;;;;;5117770;28;20039;-69
2021/07/25 06:33:42;;;;;;;30.17;22.33;;;18.80;99.90;;;;;;5117317;28;20035;-69
2021/07/25 06:36:10;;;;;;;32.10;22.55;;;18.80;99.90;;;;;;5117965;28;20039;-70
2021/07/25 06:38:37;;;;;;;27.98;20.98;;;18.80;99.90;;;;;;5117017;28;20043;-70
2021/07/25 06:41:10;;;;;;;31.98;22.05;;;18.80;99.90;;;;;;5117326;28;20118;-70
2021/07/25 06:43:36;;;;;;;27.83;20.85;;;18.80;99.90;;;;;;5117384;28;20063;-70
2021/07/25 06:46:02;;;;;;;28.48;22.10;;;18.90;99.90;;;;;;5117668;28;20101;-70
2021/07/25 06:48:29;;;;;;;25.27;20.15;;;18.90;99.90;;;;;;5116925;28;20114;-71
2021/07/25 06:50:57;;;;;;;28.80;20.92;;;19.00;99.90;;;;;;5117143;28;20110;-70
2021/07/25 06:53:26;;;;;;;25.55;20.27;;;19.10;99.90;;;;;;5117062;28;20035;-70
2021/07/25 06:55:53;;;;;;;27.40;21.27;;;19.20;99.90;;;;;;5117400;28;20409;-70
2021/07/25 06:58:20;;;;;;;24.20;17.98;;;19.20;99.90;;;;;;5116790;28;20042;-69
2021/07/25 07:00:47;;;;;;;24.92;19.88;;;19.30;99.90;;;;;;5116444;28;20177;-69
2021/07/25 07:03:13;;;;;;;23.95;18.13;;;19.50;99.90;;;;;;5116982;28;20483;-69
2021/07/25 07:05:38;;;;;;;22.98;18.25;;;19.70;99.90;;;;;;5116628;28;20043;-69
2021/07/25 07:08:06;;;;;;;23.13;18.33;;;19.80;99.90;;;;;;5117142;28;20035;-69
2021/07/25 07:10:37;;;;;;;22.25;16.13;;;19.90;99.90;;;;;;5116206;28;20039;-69
2021/07/25 07:13:08;;;;;;;24.38;15.90;;;19.90;99.90;;;;;;5116701;28;20027;-69
2021/07/25 07:15:38;;;;;;;19.92;17.42;;;19.90;99.90;;;;;;5116488;28;20093;-70
2021/07/25 07:18:04;;;;;;;22.05;16.02;;;19.90;99.90;;;;;;5116683;28;20432;-70
2021/07/25 07:20:31;;;;;;;22.00;16.85;;;19.80;99.90;;;;;;5116106;28;20039;-70
2021/07/25 07:22:58;;;;;;;21.27;16.15;;;19.70;99.90;;;;;;5116368;28;20093;-70
2021/07/25 07:25:26;;;;;;;19.52;16.98;;;19.60;99.90;;;;;;5116326;28;20548;-69
2021/07/25 07:27:52;;;;;;;20.25;16.70;;;19.60;99.90;;;;;;5116322;28;20084;-70
2021/07/25 07:30:18;;;;;;;22.48;17.13;;;19.50;99.90;;;;;;5115841;27;20044;-70
2021/07/25 07:32:45;;;;;;;21.35;16.17;;;19.50;99.90;;;;;;5116330;28;20048;-71
2021/07/25 07:35:11;;;;;;;19.88;16.80;;;19.60;99.90;;;;;;5115490;28;20052;-71
2021/07/25 07:37:37;;;;;;;21.58;16.20;;;19.70;99.90;;;;;;5116502;28;20487;-71
2021/07/25 07:40:03;;;;;;;22.98;16.15;;;19.90;99.90;;;;;;5115761;28;20069;-71
2021/07/25 07:42:29;;;;;;;20.63;15.85;;;20.20;99.90;;;;;;5116118;28;20042;-70
2021/07/25 07:44:56;;;;;;;19.00;15.60;;;20.40;99.90;;;;;;5105447;28;20450;-71
2021/07/25 07:47:23;;;;;;;20.80;13.82;;;20.70;99.90;;;;;;5095543;28;20036;-70
2021/07/25 07:49:52;;;;;;;20.40;14.85;;;20.90;99.90;;;;;;5095517;28;20131;-70
2021/07/25 07:52:18;;;;;;;16.02;13.75;;;21.10;99.90;;;;;;5095573;28;20047;-70
2021/07/25 07:54:46;;;;;;;16.95;13.60;;;21.20;99.90;;;;;;5095240;28;20496;-70
2021/07/25 07:57:12;;;;;;;15.52;13.18;;;21.10;99.90;;;;;;5096051;28;20036;-70
2021/07/25 07:59:38;;;;;;;17.48;12.23;;;21.10;99.90;;;;;;5100854;27;20513;-70
2021/07/25 08:02:04;;;;;;;13.68;11.95;;;21.10;99.90;;;;;;5115545;28;20525;-69
2021/07/25 08:04:30;;;;;;;15.27;11.52;;;21.30;99.90;;;;;;5114513;28;20039;-70
2021/07/25 08:06:55;;;;;;;13.50;12.05;;;21.50;99.90;;;;;;5115620;28;20475;-71
2021/07/25 08:09:21;;;;;;;15.30;11.98;;;21.80;99.90;;;;;;5115384;28;20043;-71
2021/07/25 08:11:49;;;;;;;15.13;11.48;;;22.10;99.90;;;;;;5115856;28;20110;-71
2021/07/25 08:14:19;;;;;;;12.70;10.98;;;22.30;99.90;;;;;;5115467;28;20042;-70
2021/07/25 08:16:45;;;;;;;13.77;11.70;;;22.40;99.90;;;;;;5115319;28;20042;-70
2021/07/25 08:19:11;;;;;;;15.20;11.55;;;22.50;99.90;;;;;;5115136;28;20458;-70
2021/07/25 08:21:39;;;;;;;14.40;10.75;;;22.60;99.90;;;;;;5115163;28;20123;-70
2021/07/25 08:24:04;;;;;;;12.88;11.02;;;22.50;99.90;;;;;;5114640;28;20080;-71
2021/07/25 08:26:30;;;;;;;13.50;11.75;;;22.30;99.90;;;;;;5115468;28;20039;-71
2021/07/25 08:28:56;;;;;;;14.85;11.38;;;22.20;99.90;;;;;;5113845;28;20426;-70
2021/07/25 08:31:22;;;;;;;14.32;12.25;;;21.90;99.90;;;;;;5115228;28;20039;-70
2021/07/25 08:33:48;;;;;;;14.85;12.60;;;21.80;99.90;;;;;;5115207;28;20047;-70
2021/07/25 08:36:14;;;;;;;16.70;14.05;;;21.60;99.90;;;;;;5115399;28;20036;-70
2021/07/25 08:38:40;;;;;;;17.38;13.60;;;21.60;99.90;;;;;;5114734;28;20046;-71
2021/07/25 08:41:21;;;;;;;17.50;14.25;;;21.60;99.90;;;;;;5114941;28;20035;-71
2021/07/25 08:43:47;;;;;;;19.23;15.52;;;21.70;99.90;;;;;;5114699;28;20385;-70
2021/07/25 08:46:15;;;;;;;17.52;13.73;;;21.90;99.90;;;;;;5115037;28;20085;-71
2021/07/25 08:48:49;;;;;;;18.40;14.20;;;22.30;99.90;;;;;;5114935;28;20027;-71
2021/07/25 08:51:23;;;;;;;16.80;13.88;;;22.70;99.90;;;;;;5115293;28;20046;-71
2021/07/25 08:54:04;;;;;;;16.90;14.27;;;23.10;99.90;;;;;;5115270;28;20046;-70
2021/07/25 08:56:34;;;;;;;22.58;15.55;;;23.30;99.90;;;;;;5114546;28;20040;-70
2021/07/25 08:59:02;;;;;;;19.13;15.93;;;23.40;99.90;;;;;;5114114;28;20031;-70
2021/07/25 09:01:36;;;;;;;21.50;16.67;;;23.30;99.90;;;;;;5114838;28;20067;-68
2021/07/25 09:04:03;;;;;;;19.73;16.63;;;23.10;99.90;;;;;;5114382;28;20488;-68
2021/07/25 09:06:43;;;;;;;19.25;16.38;;;22.80;99.90;;;;;;5114537;27;20356;-69
2021/07/25 09:09:10;;;;;;;19.27;16.48;;;22.70;99.90;;;;;;5114433;28;20091;-68
2021/07/25 09:11:36;;;;;;;19.33;16.95;;;22.60;99.90;;;;;;5114077;28;20036;-73
2021/07/25 09:14:04;;;;;;;22.17;17.98;;;22.50;99.90;;;;;;5114740;28;20040;-69
2021/07/25 09:16:32;;;;;;;23.13;18.48;;;22.50;99.90;;;;;;5114230;28;20042;-70
2021/07/25 09:18:57;;;;;;;23.17;20.38;;;22.60;99.90;;;;;;5114070;28;20464;-69
2021/07/25 09:21:47;;;;;;;23.55;20.38;;;22.70;99.90;;;;;;5114286;27;20038;-71
2021/07/25 09:24:30;;;;;;;19.27;16.45;;;22.80;99.90;;;;;;5114211;28;20152;-70
2021/07/25 09:27:02;;;;;;;23.23;18.73;;;23.40;99.90;;;;;;5110080;28;20040;-70
2021/07/25 09:29:29;;;;;;;24.42;18.77;;;23.90;99.90;;;;;;5114296;28;20399;-69
2021/07/25 09:32:17;;;;;;;23.52;18.83;;;24.30;99.90;;;;;;5113913;28;20488;-70
2021/07/25 09:34:45;;;;;;;24.40;18.95;;;24.40;99.90;;;;;;5112846;28;20043;-70
2021/07/25 09:37:22;;;;;;;26.00;20.35;;;24.50;99.90;;;;;;5113457;28;20036;-71
2021/07/25 09:39:52;;;;;;;24.77;20.13;;;24.40;99.90;;;;;;5113820;28;20446;-71
2021/07/25 09:42:29;;;;;;;21.92;19.58;;;24.20;99.90;;;;;;5114026;28;20072;-71
2021/07/25 09:44:59;;;;;;;22.95;17.98;;;23.90;99.90;;;;;;5113901;28;20429;-70
2021/07/25 09:47:33;;;;;;;23.52;19.20;;;23.70;99.90;;;;;;5113287;28;20052;-70
2021/07/25 09:50:00;;;;;;;23.85;19.80;;;23.70;99.90;;;;;;5113709;28;20051;-71
2021/07/25 09:52:27;;;;;;;24.55;20.63;;;23.60;99.90;;;;;;5113970;28;20122;-71
2021/07/25 09:54:56;;;;;;;26.23;20.92;;;23.50;99.90;;;;;;5114152;28;20114;-70
2021/07/25 09:57:26;;;;;;;26.35;19.65;;;23.40;99.90;;;;;;5113522;28;20133;-71
2021/07/25 09:59:56;;;;;;;25.83;20.42;;;23.70;99.90;;;;;;5113451;28;20114;-70
2021/07/25 10:02:38;;;;;;;23.00;20.20;;;24.00;99.90;;;;;;5114119;28;20463;-71
2021/07/25 10:05:14;;;;;;;23.88;20.85;;;24.20;99.90;;;;;;5113848;28;20063;-70
2021/07/25 10:07:45;;;;;;;23.65;21.15;;;24.40;99.90;;;;;;5113627;28;20215;-71
2021/07/25 10:10:13;;;;;;;25.77;21.40;;;24.40;99.90;;;;;;5113345;28;20066;-71
2021/07/25 10:12:41;;;;;;;23.77;20.83;;;24.40;99.90;;;;;;5113975;28;20047;-70
2021/07/25 10:15:12;;;;;;;26.77;21.88;;;24.40;99.90;;;;;;5113638;28;20773;-70
2021/07/25 10:17:40;;;;;;;24.05;21.40;;;24.40;99.90;;;;;;5113839;28;20058;-70
2021/07/25 10:20:08;;;;;;;27.13;21.50;;;24.40;99.90;;;;;;5113472;28;20498;-70
2021/07/25 10:22:36;;;;;;;27.30;21.73;;;24.30;99.90;;;;;;5113298;28;20046;-71
2021/07/25 10:25:14;;;;;;;22.88;20.38;;;23.90;99.90;;;;;;5113580;28;20066;-72
2021/07/25 10:27:43;;;;;;;23.58;19.70;;;24.00;99.90;;;;;;5113527;28;20039;-70
2021/07/25 10:30:18;;;;;;;24.40;20.42;;;24.20;99.90;;;;;;5113206;28;20451;-72
2021/07/25 10:32:45;;;;;;;28.25;22.75;;;24.00;99.90;;;;;;5113690;28;20039;-71
2021/07/25 10:35:12;;;;;;;29.17;22.90;;;23.90;99.90;;;;;;5113738;28;20039;-71
2021/07/25 10:37:40;;;;;;;27.58;23.48;;;23.80;99.90;;;;;;5114002;28;20036;-71
2021/07/25 10:40:07;;;;;;;26.95;23.17;;;24.10;99.90;;;;;;5113496;28;20048;-72
2021/07/25 10:42:40;;;;;;;26.90;23.85;;;24.20;99.90;;;;;;5113878;28;20118;-72
2021/07/25 10:45:08;;;;;;;;;;;24.00;99.90;;;;;;5113903;28;20514;-71
2021/07/25 10:47:34;;;;;;;25.95;22.85;;;23.60;99.90;;;;;;5115348;28;19916;-72
2021/07/25 10:50:06;;;;;;;26.88;22.30;;;23.50;99.90;;;;;;5116658;28;20035;-72
2021/07/25 10:52:52;;;;;;;22.93;20.43;;;23.30;99.90;;;;;;5117021;28;20043;-72
2021/07/25 10:55:38;;;;;;;27.58;21.38;;;23.40;99.90;;;;;;5117330;28;20032;-73
2021/07/25 10:58:07;;;;;;;24.20;20.60;;;23.30;99.90;;;;;;5116726;28;20035;-72
2021/07/25 11:00:39;;;;;;;25.02;20.88;;;23.50;99.90;;;;;;5116036;28;20032;-72
2021/07/25 11:03:06;;;;;;;22.98;19.98;;;23.70;99.90;;;;;;5116966;28;20403;-70
2021/07/25 11:05:31;;;;;;;22.55;20.10;;;24.00;99.90;;;;;;5116848;28;20040;-72
2021/07/25 11:07:59;;;;;;;21.35;18.65;;;24.00;99.90;;;;;;5116678;28;20395;-72
2021/07/25 11:10:35;;;;;;;19.60;17.42;;;24.20;99.90;;;;;;5116641;28;20114;-72
2021/07/25 11:13:01;;;;;;;27.33;20.45;;;23.90;99.90;;;;;;5116779;28;20043;-72
2021/07/25 11:15:35;;;;;;;19.15;17.10;;;23.70;99.90;;;;;;5116558;28;20044;-71
2021/07/25 11:18:16;;;;;;;22.55;19.13;;;23.80;99.90;;;;;;5116717;28;20115;-71
2021/07/25 11:20:51;;;;;;;20.20;17.15;;;23.80;99.90;;;;;;5116296;28;20039;-70
2021/07/25 11:23:20;;;;;;;19.63;16.13;;;23.80;99.90;;;;;;5116354;28;20119;-71
2021/07/25 11:25:47;;;;;;;18.27;16.33;;;24.10;99.90;;;;;;5116952;28;20089;-71
2021/07/25 11:28:39;;;;;;;18.40;16.35;;;24.30;99.90;;;;;;5116222;27;20035;-71
2021/07/25 11:31:07;;;;;;;20.50;16.53;;;24.10;99.90;;;;;;5116277;28;20043;-72
2021/07/25 11:33:51;;;;;;;21.92;18.33;;;23.90;99.90;;;;;;5116113;28;20111;-72
2021/07/25 11:36:22;;;;;;;18.52;16.48;;;23.70;99.90;;;;;;5116597;28;20035;-71
2021/07/25 11:38:56;;;;;;;19.63;17.52;;;23.60;99.90;;;;;;5116383;28;20066;-72
2021/07/25 11:41:24;;;;;;;20.15;17.40;;;23.70;99.90;;;;;;5116097;28;20038;-70
2021/07/25 11:44:02;;;;;;;22.60;18.52;;;23.70;99.90;;;;;;5116536;28;20425;-71
2021/07/25 11:46:40;;;;;;;20.45;17.65;;;23.70;99.90;;;;;;5115884;27;20079;-71
2021/07/25 11:49:20;;;;;;;19.73;16.55;;;23.70;99.90;;;;;;5115737;28;20038;-70
2021/07/25 11:52:00;;;;;;;21.17;16.73;;;23.60;99.90;;;;;;5115255;28;20056;-71
2021/07/25 11:54:29;;;;;;;17.75;15.40;;;23.30;99.90;;;;;;5116547;28;20031;-70
2021/07/25 11:57:02;;;;;;;20.45;17.60;;;23.40;99.90;;;;;;5115900;28;20047;-71
2021/07/25 11:59:30;;;;;;;21.20;17.27;;;23.30;99.90;;;;;;5114323;28;20042;-71
2021/07/25 12:01:56;;;;;;;18.80;16.75;;;23.30;99.90;;;;;;5115871;28;20039;-70
2021/07/25 12:04:39;;;;;;;18.35;16.38;;;23.20;99.90;;;;;;5116249;28;20035;-70
2021/07/25 12:07:17;;;;;;;18.63;16.73;;;23.10;99.90;;;;;;5116290;28;20035;-69
2021/07/25 12:09:53;;;;;;;17.70;15.88;;;23.10;99.90;;;;;;5115398;28;20035;-70
2021/07/25 12:12:23;;;;;;;19.60;16.48;;;23.20;99.90;;;;;;5115687;28;20039;-71
2021/07/25 12:14:53;;;;;;;21.38;17.83;;;23.20;99.90;;;;;;5115809;28;20046;-71
2021/07/25 12:17:38;;;;;;;21.58;17.70;;;23.20;99.90;;;;;;5114825;28;20452;-71
2021/07/25 12:20:15;;;;;;;23.63;19.10;;;23.20;99.90;;;;;;5113991;28;20035;-71
2021/07/25 12:22:54;;;;;;;21.50;19.20;;;23.20;99.90;;;;;;5115313;28;20487;-71
2021/07/25 12:25:20;;;;;;;20.60;17.95;;;23.30;99.90;;;;;;5115912;28;20394;-72
2021/07/25 12:28:00;;;;;;;23.25;18.63;;;23.40;99.90;;;;;;5115257;28;20038;-72
2021/07/25 12:30:26;;;;;;;19.52;17.25;;;23.80;99.90;;;;;;5114897;28;20036;-72
2021/07/25 12:33:04;;;;;;;20.98;17.15;;;24.20;99.90;;;;;;5114171;28;20088;-71
2021/07/25 12:35:32;;;;;;;19.02;16.63;;;24.40;99.90;;;;;;5115340;28;20040;-72
2021/07/25 12:38:00;;;;;;;20.15;16.50;;;24.50;99.90;;;;;;5115515;28;20044;-72